Time;durP1;ratioP1;P1;durP2;ratioP2;P2;SDS_P1;SDS_P2;PMS_P1;PMS_P2;Temp;Humidity;BMP_temperature;BMP_pressure;BME280_temperature;BME280_humidity;BME280_pressure;Samples;Min_cycle;Max_cycle;Signal;HPM_P1;HPM_P2
2022/06/18 00:02:24;;;;;;;2.50;1.88;;;;;;;;;;4973571;28;20035;-82
2022/06/18 00:04:50;;;;;;;1.70;1.60;;;;;;;;;;4973246;28;20514;-83
2022/06/18 00:07:18;;;;;;;1.98;1.70;;;;;;;;;;4957022;28;20447;-82
2022/06/18 00:09:45;;;;;;;2.95;1.85;;;;;;;;;;4973147;28;20026;-82
2022/06/18 00:14:57;;;;;;;2.13;1.70;;;;;;;;;;4973912;28;20502;-81
2022/06/18 00:17:22;;;;;;;5.80;1.70;;;;;;;;;;4973406;28;20038;-82
2022/06/18 00:19:48;;;;;;;2.63;1.70;;;;;;;;;;4974234;28;20465;-82
2022/06/18 00:22:19;;;;;;;2.28;1.83;;;;;;;;;;4972787;28;20055;-82
2022/06/18 00:24:45;;;;;;;2.30;1.77;;;;;;;;;;4957063;28;20109;-82
2022/06/18 00:27:12;;;;;;;2.50;1.70;;;;;;;;;;4974461;28;20468;-82
2022/06/18 00:29:37;;;;;;;2.15;1.70;;;;;;;;;;4973431;28;20023;-81
2022/06/18 00:32:03;;;;;;;4.30;2.67;;;;;;;;;;4973231;28;20031;-82
2022/06/18 00:34:28;;;;;;;2.05;1.58;;;;;;;;;;4957372;28;20529;-82
2022/06/18 00:36:54;;;;;;;2.47;1.92;;;;;;;;;;4977364;28;20059;-82
2022/06/18 00:39:19;;;;;;;2.30;2.10;;;;;;;;;;4978323;28;20033;-82
2022/06/18 00:41:47;;;;;;;2.22;1.85;;;;;;;;;;4977057;28;20054;-83
2022/06/18 00:44:25;;;;;;;1.77;1.67;;;;;;;;;;4978312;28;20031;-83
2022/06/18 00:47:06;;;;;;;3.45;1.85;;;;;;;;;;4978031;28;20031;-83
2022/06/18 00:49:37;;;;;;;1.90;1.67;;;;;;;;;;4977829;28;20015;-82
2022/06/18 00:52:12;;;;;;;2.17;1.77;;;;;;;;;;4976654;28;20037;-82
2022/06/18 00:54:46;;;;;;;2.75;1.70;;;;;;;;;;4976291;28;20109;-82
2022/06/18 00:57:21;;;;;;;2.10;1.80;;;;;;;;;;4960434;28;20037;-82
2022/06/18 01:00:16;;;;;;;1.95;1.70;;;;;;;;;;4976360;28;20029;-82
2022/06/18 01:02:44;;;;;;;1.77;1.60;;;;;;;;;;4965100;28;20051;-82
2022/06/18 01:05:16;;;;;;;2.33;2.08;;;;;;;;;;4978030;28;20487;-82
2022/06/18 01:07:42;;;;;;;2.40;1.95;;;;;;;;;;4976459;28;20062;-82
2022/06/18 01:10:14;;;;;;;2.50;1.88;;;;;;;;;;4976330;28;20365;-83
2022/06/18 01:12:40;;;;;;;2.58;1.77;;;;;;;;;;4976669;28;20031;-83
2022/06/18 01:15:08;;;;;;;5.85;2.00;;;;;;;;;;4978868;28;20466;-83
2022/06/18 01:17:35;;;;;;;2.05;1.80;;;;;;;;;;4976017;28;20058;-83
2022/06/18 01:20:04;;;;;;;2.38;1.88;;;;;;;;;;4976348;28;20089;-82
2022/06/18 01:22:44;;;;;;;2.60;1.95;;;;;;;;;;4976098;28;20061;-82
2022/06/18 01:25:10;;;;;;;2.25;1.75;;;;;;;;;;4976332;28;20041;-82
2022/06/18 01:27:37;;;;;;;3.25;1.90;;;;;;;;;;4976255;28;20446;-83
2022/06/18 01:30:14;;;;;;;3.03;1.83;;;;;;;;;;4959774;28;20121;-82
2022/06/18 01:32:41;;;;;;;2.65;2.15;;;;;;;;;;4959810;28;20578;-82
2022/06/18 01:35:07;;;;;;;2.00;1.80;;;;;;;;;;4975863;28;20088;-82
2022/06/18 01:37:32;;;;;;;3.28;1.73;;;;;;;;;;4977480;28;20073;-82
2022/06/18 01:39:58;;;;;;;2.17;1.90;;;;;;;;;;4975600;28;20039;-82
2022/06/18 01:42:33;;;;;;;2.28;2.00;;;;;;;;;;4977237;28;20355;-83
2022/06/18 01:45:03;;;;;;;2.05;1.70;;;;;;;;;;4975557;28;20061;-83
2022/06/18 01:47:42;;;;;;;3.20;1.75;;;;;;;;;;4959010;28;20037;-82
2022/06/18 01:50:13;;;;;;;2.58;2.05;;;;;;;;;;4976051;28;20018;-83
2022/06/18 01:52:42;;;;;;;2.08;1.83;;;;;;;;;;4959792;28;20364;-83
2022/06/18 01:55:14;;;;;;;2.20;2.00;;;;;;;;;;4975838;28;20383;-82
2022/06/18 01:57:43;;;;;;;10.00;2.10;;;;;;;;;;4975422;28;20089;-82
2022/06/18 02:00:17;;;;;;;2.53;1.77;;;;;;;;;;4975311;28;20026;-83
2022/06/18 02:02:42;;;;;;;;;;;;;;;;;;4975833;28;20104;-82
2022/06/18 02:05:08;;;;;;;2.53;1.73;;;;;;;;;;4976941;28;20008;-82
2022/06/18 02:07:34;;;;;;;2.30;2.10;;;;;;;;;;4975171;28;20031;-82
2022/06/18 02:10:06;;;;;;;2.88;1.77;;;;;;;;;;4976500;28;20023;-82
2022/06/18 02:12:35;;;;;;;4.22;2.00;;;;;;;;;;4975180;28;20026;-82
2022/06/18 02:15:12;;;;;;;2.67;1.83;;;;;;;;;;4975253;28;20019;-82
2022/06/18 02:17:38;;;;;;;3.08;2.00;;;;;;;;;;4975273;28;20022;-82
2022/06/18 02:20:17;;;;;;;5.90;2.00;;;;;;;;;;4975410;28;20085;-83
2022/06/18 02:22:45;;;;;;;2.63;2.00;;;;;;;;;;4974841;28;20050;-82
2022/06/18 02:25:12;;;;;;;2.25;1.88;;;;;;;;;;4975397;28;20023;-82
2022/06/18 02:27:39;;;;;;;2.30;1.90;;;;;;;;;;4974806;28;20047;-82
2022/06/18 02:30:05;;;;;;;3.58;2.00;;;;;;;;;;4975175;28;20065;-82
2022/06/18 02:32:39;;;;;;;2.22;2.00;;;;;;;;;;4974658;28;20105;-82
2022/06/18 02:35:08;;;;;;;;;;;;;;;;;;4975285;28;20027;-82
2022/06/18 02:37:33;;;;;;;4.15;2.03;;;;;;;;;;4975816;28;19988;-82
2022/06/18 02:40:01;;;;;;;3.28;2.10;;;;;;;;;;4974658;28;20480;-82
2022/06/18 02:42:31;;;;;;;3.75;2.20;;;;;;;;;;4958520;28;20446;-82
2022/06/18 02:44:57;;;;;;;2.92;2.20;;;;;;;;;;4975774;28;20026;-82
2022/06/18 02:47:22;;;;;;;2.75;1.98;;;;;;;;;;4976070;28;20550;-82
2022/06/18 02:50:01;;;;;;;2.55;2.00;;;;;;;;;;4975953;28;20109;-81
2022/06/18 02:52:30;;;;;;;1.92;1.77;;;;;;;;;;4975896;28;20035;-82
2022/06/18 02:55:00;;;;;;;3.25;2.10;;;;;;;;;;4974516;28;20045;-82
2022/06/18 02:57:27;;;;;;;2.20;1.88;;;;;;;;;;4975400;28;20030;-82
2022/06/18 02:59:53;;;;;;;2.47;2.10;;;;;;;;;;4973998;28;20031;-82
2022/06/18 03:02:18;;;;;;;2.60;2.40;;;;;;;;;;4974352;28;20045;-82
2022/06/18 03:04:44;;;;;;;2.10;1.90;;;;;;;;;;4975610;28;20027;-82
2022/06/18 03:07:09;;;;;;;2.90;2.42;;;;;;;;;;4974302;28;20034;-82
2022/06/18 03:12:06;;;;;;;2.55;2.00;;;;;;;;;;4974071;28;20039;-82
2022/06/18 03:12:20;;;;;;;3.92;2.10;;;;;;;;;;4975106;28;20030;-82
2022/06/18 03:14:45;;;;;;;2.42;1.95;;;;;;;;;;4975092;28;20118;-82
2022/06/18 03:17:11;;;;;;;2.20;2.00;;;;;;;;;;4957660;28;20038;-83
2022/06/18 03:19:43;;;;;;;2.97;2.00;;;;;;;;;;4957585;28;20034;-82
2022/06/18 03:22:13;;;;;;;2.13;1.88;;;;;;;;;;4973510;28;20046;-83
2022/06/18 03:24:41;;;;;;;2.50;2.28;;;;;;;;;;4974844;28;20034;-82
2022/06/18 03:27:07;;;;;;;3.50;2.40;;;;;;;;;;4974112;28;20118;-83
2022/06/18 03:29:33;;;;;;;6.15;1.88;;;;;;;;;;4973882;28;20030;-82
2022/06/18 03:32:00;;;;;;;4.22;2.15;;;;;;;;;;4974185;28;20031;-82
2022/06/18 03:34:26;;;;;;;3.70;2.08;;;;;;;;;;4973708;28;20023;-81
2022/06/18 03:36:51;;;;;;;3.53;2.10;;;;;;;;;;4973883;28;20483;-81
2022/06/18 03:39:17;;;;;;;3.53;2.35;;;;;;;;;;4973888;28;20447;-82
2022/06/18 03:41:42;;;;;;;3.67;2.33;;;;;;;;;;4973620;28;20490;-81
2022/06/18 03:44:08;;;;;;;4.15;2.10;;;;;;;;;;4974655;28;20194;-82
2022/06/18 03:46:36;;;;;;;3.30;2.13;;;;;;;;;;4974751;28;20030;-82
2022/06/18 03:49:03;;;;;;;5.63;2.38;;;;;;;;;;4973465;28;20109;-83
2022/06/18 03:51:29;;;;;;;3.10;2.42;;;;;;;;;;4973864;28;20038;-82
2022/06/18 03:53:56;;;;;;;15.23;2.30;;;;;;;;;;4973566;28;20027;-82
2022/06/18 03:56:24;;;;;;;5.72;2.53;;;;;;;;;;4974770;28;20109;-82
2022/06/18 03:58:50;;;;;;;4.57;2.20;;;;;;;;;;4957068;28;20541;-82
2022/06/18 04:01:19;;;;;;;5.85;2.15;;;;;;;;;;4974983;28;20046;-82
2022/06/18 04:03:44;;;;;;;3.78;2.50;;;;;;;;;;4973433;28;20034;-81
2022/06/18 04:06:10;;;;;;;3.42;2.38;;;;;;;;;;4973796;28;20027;-81
2022/06/18 04:08:36;;;;;;;3.15;2.50;;;;;;;;;;4973895;28;20062;-82
2022/06/18 04:11:01;;;;;;;3.45;2.20;;;;;;;;;;4972900;28;20031;-82
2022/06/18 04:13:29;;;;;;;5.20;2.58;;;;;;;;;;4973911;28;20030;-82
2022/06/18 04:15:55;;;;;;;4.57;2.55;;;;;;;;;;4974762;28;20030;-81
2022/06/18 04:18:21;;;;;;;3.78;2.30;;;;;;;;;;4956938;28;20113;-82
2022/06/18 04:20:46;;;;;;;3.88;2.38;;;;;;;;;;4973044;28;20034;-82
2022/06/18 04:23:15;;;;;;;7.13;2.20;;;;;;;;;;4974646;28;20027;-81
2022/06/18 04:25:40;;;;;;;5.32;2.67;;;;;;;;;;4973315;28;20033;-81
2022/06/18 04:28:06;;;;;;;5.82;2.63;;;;;;;;;;4974364;28;20027;-82
2022/06/18 04:30:32;;;;;;;4.75;2.70;;;;;;;;;;4974705;28;20031;-81
2022/06/18 04:32:58;;;;;;;7.95;2.63;;;;;;;;;;4974024;28;20062;-82
2022/06/18 04:35:23;;;;;;;7.00;2.50;;;;;;;;;;4972939;28;20129;-81
2022/06/18 04:37:49;;;;;;;5.38;2.30;;;;;;;;;;4956563;28;20034;-81
2022/06/18 04:40:20;;;;;;;15.23;2.85;;;;;;;;;;4974038;28;20369;-84
2022/06/18 04:42:46;;;;;;;7.20;2.30;;;;;;;;;;4972310;28;20026;-79
2022/06/18 04:45:12;;;;;;;9.52;2.67;;;;;;;;;;4973126;28;20041;-81
2022/06/18 04:47:40;;;;;;;14.00;3.00;;;;;;;;;;4972552;28;20038;-81
2022/06/18 04:50:06;;;;;;;12.13;3.33;;;;;;;;;;4973303;28;20082;-81
2022/06/18 04:52:32;;;;;;;14.20;3.10;;;;;;;;;;4972002;28;20467;-81
2022/06/18 04:54:57;;;;;;;13.95;3.03;;;;;;;;;;4971968;28;20085;-80
2022/06/18 04:57:22;;;;;;;11.63;3.53;;;;;;;;;;4971894;28;20121;-80
2022/06/18 04:59:48;;;;;;;13.27;3.75;;;;;;;;;;4971681;28;20031;-82
2022/06/18 05:02:22;;;;;;;21.70;3.55;;;;;;;;;;4972910;28;20042;-81
2022/06/18 05:04:47;;;;;;;18.15;3.58;;;;;;;;;;4955833;28;20443;-80
2022/06/18 05:07:13;;;;;;;6.60;2.80;;;;;;;;;;4973631;28;20078;-83
2022/06/18 05:09:38;;;;;;;13.75;3.53;;;;;;;;;;4971876;28;20026;-81
2022/06/18 05:12:04;;;;;;;5.53;2.80;;;;;;;;;;4973000;28;20023;-80
2022/06/18 05:14:31;;;;;;;8.73;3.67;;;;;;;;;;4944897;28;20030;-81
2022/06/18 05:16:57;;;;;;;12.75;3.20;;;;;;;;;;4963356;28;20177;-83
2022/06/18 05:19:25;;;;;;;10.40;3.22;;;;;;;;;;4974744;28;20062;-81
2022/06/18 05:21:51;;;;;;;12.88;3.70;;;;;;;;;;4974584;28;20078;-83
2022/06/18 05:24:17;;;;;;;8.02;3.10;;;;;;;;;;4978694;28;20055;-81
2022/06/18 05:26:46;;;;;;;6.32;3.03;;;;;;;;;;4976958;28;20535;-81
2022/06/18 05:29:11;;;;;;;11.98;3.13;;;;;;;;;;4977701;28;20026;-84
2022/06/18 05:31:37;;;;;;;6.80;3.13;;;;;;;;;;4978109;28;20286;-84
2022/06/18 05:34:05;;;;;;;7.18;3.08;;;;;;;;;;4978025;28;20407;-83
2022/06/18 05:36:30;;;;;;;8.55;2.80;;;;;;;;;;4960225;28;20035;-84
2022/06/18 05:38:57;;;;;;;6.15;2.90;;;;;;;;;;4961793;28;20027;-80
2022/06/18 05:41:23;;;;;;;6.55;2.60;;;;;;;;;;4976647;28;20300;-80
2022/06/18 05:43:49;;;;;;;13.23;3.30;;;;;;;;;;4977265;28;20030;-80
2022/06/18 05:46:14;;;;;;;8.93;3.15;;;;;;;;;;4974772;28;20097;-81
2022/06/18 05:48:39;;;;;;;13.55;3.00;;;;;;;;;;4976796;28;20031;-81
2022/06/18 05:51:05;;;;;;;9.07;3.45;;;;;;;;;;4978502;28;20034;-81
2022/06/18 05:53:31;;;;;;;17.02;3.15;;;;;;;;;;4964259;28;20181;-80
2022/06/18 05:55:56;;;;;;;21.38;5.72;;;;;;;;;;4961585;28;20038;-81
2022/06/18 05:58:22;;;;;;;8.23;3.45;;;;;;;;;;4961696;28;20031;-82
2022/06/18 06:00:47;;;;;;;12.50;3.35;;;;;;;;;;4976084;28;20030;-83
2022/06/18 06:03:12;;;;;;;7.72;3.00;;;;;;;;;;4975932;28;20102;-82
2022/06/18 06:05:38;;;;;;;8.48;2.95;;;;;;;;;;4977119;28;20035;-82
2022/06/18 06:08:04;;;;;;;10.05;2.97;;;;;;;;;;4977190;28;20058;-83
2022/06/18 06:13:16;;;;;;;7.07;2.97;;;;;;;;;;4976665;28;20434;-81
2022/06/18 06:15:42;;;;;;;8.25;2.88;;;;;;;;;;4975422;28;20031;-81
2022/06/18 06:18:10;;;;;;;10.50;3.05;;;;;;;;;;4976081;28;20073;-81
2022/06/18 06:20:38;;;;;;;11.02;3.78;;;;;;;;;;4975210;28;20058;-83
2022/06/18 06:23:04;;;;;;;7.70;3.30;;;;;;;;;;4976121;28;20055;-84
2022/06/18 06:25:30;;;;;;;8.48;3.20;;;;;;;;;;4974936;28;20050;-79
2022/06/18 06:27:55;;;;;;;9.80;3.53;;;;;;;;;;4977291;28;20387;-79
2022/06/18 06:30:21;;;;;;;11.52;3.03;;;;;;;;;;4974936;28;20147;-81
2022/06/18 06:32:46;;;;;;;10.00;3.05;;;;;;;;;;4974899;28;20034;-80
2022/06/18 06:35:12;;;;;;;6.68;3.20;;;;;;;;;;4975617;28;20081;-79
2022/06/18 06:37:38;;;;;;;6.53;3.10;;;;;;;;;;4979039;28;20101;-80
2022/06/18 06:40:04;;;;;;;10.57;2.85;;;;;;;;;;4977622;28;20467;-80
2022/06/18 06:42:30;;;;;;;8.95;3.30;;;;;;;;;;4975887;28;20042;-80
2022/06/18 06:44:55;;;;;;;8.52;3.40;;;;;;;;;;4959786;28;20045;-81
2022/06/18 06:47:21;;;;;;;10.93;3.45;;;;;;;;;;4982369;28;20094;-80
2022/06/18 06:49:47;;;;;;;7.88;3.17;;;;;;;;;;4974463;28;20030;-80
2022/06/18 06:52:13;;;;;;;4.78;2.72;;;;;;;;;;4970269;28;20144;-80
2022/06/18 06:54:39;;;;;;;6.43;3.00;;;;;;;;;;4979290;28;20059;-79
2022/06/18 06:57:22;;;;;;;8.90;3.58;;;;;;;;;;4975358;28;20034;-80
2022/06/18 06:59:47;;;;;;;;;;;;;;;;;;4977484;28;20035;-80
2022/06/18 07:02:15;;;;;;;5.50;2.93;;;;;;;;;;4976805;28;19918;-79
2022/06/18 07:04:41;;;;;;;6.13;3.35;;;;;;;;;;4960019;28;20315;-79
2022/06/18 07:07:06;;;;;;;6.80;3.22;;;;;;;;;;4988511;28;20023;-80
2022/06/18 07:09:32;;;;;;;9.77;3.83;;;;;;;;;;4980983;28;20027;-79
2022/06/18 07:11:57;;;;;;;7.22;2.97;;;;;;;;;;4976431;28;20035;-79
2022/06/18 07:14:23;;;;;;;6.80;3.28;;;;;;;;;;4975787;28;20031;-78
2022/06/18 07:16:49;;;;;;;5.88;3.42;;;;;;;;;;4958091;28;20151;-80
2022/06/18 07:19:16;;;;;;;7.68;3.28;;;;;;;;;;4975066;28;20037;-81
2022/06/18 07:21:41;;;;;;;6.57;3.13;;;;;;;;;;4975241;28;20051;-81
2022/06/18 07:24:07;;;;;;;7.35;3.38;;;;;;;;;;4973980;28;20030;-80
2022/06/18 07:26:32;;;;;;;11.65;3.97;;;;;;;;;;4973705;28;20069;-81
2022/06/18 07:28:58;;;;;;;12.00;3.72;;;;;;;;;;4976548;28;20027;-81
2022/06/18 07:31:29;;;;;;;14.05;4.22;;;;;;;;;;4973779;28;20041;-81
2022/06/18 07:33:55;;;;;;;15.70;3.67;;;;;;;;;;4975124;28;20023;-80
2022/06/18 07:36:21;;;;;;;10.48;4.43;;;;;;;;;;4973724;28;20045;-78
2022/06/18 07:38:46;;;;;;;8.00;4.25;;;;;;;;;;4974202;28;20023;-79
2022/06/18 07:41:14;;;;;;;10.82;3.47;;;;;;;;;;4974112;28;20039;-80
2022/06/18 07:43:42;;;;;;;10.32;3.60;;;;;;;;;;4957308;28;20038;-78
2022/06/18 07:46:10;;;;;;;9.20;4.43;;;;;;;;;;4957821;28;20105;-80
2022/06/18 07:48:39;;;;;;;8.55;3.65;;;;;;;;;;4973561;28;20030;-80
2022/06/18 07:51:05;;;;;;;8.85;3.60;;;;;;;;;;4973819;28;20042;-80
2022/06/18 07:53:31;;;;;;;12.32;4.03;;;;;;;;;;4974602;28;20042;-79
2022/06/18 07:55:57;;;;;;;9.00;3.85;;;;;;;;;;4973319;28;20129;-79
2022/06/18 07:58:23;;;;;;;11.02;4.47;;;;;;;;;;4957490;28;20539;-81
2022/06/18 08:00:49;;;;;;;11.63;3.97;;;;;;;;;;4972855;28;20066;-81
2022/06/18 08:03:16;;;;;;;10.73;3.92;;;;;;;;;;4972828;28;20082;-79
2022/06/18 08:05:42;;;;;;;10.00;3.70;;;;;;;;;;4973671;28;20027;-79
2022/06/18 08:08:08;;;;;;;10.30;3.67;;;;;;;;;;4974156;28;20110;-79
2022/06/18 08:10:35;;;;;;;8.10;3.58;;;;;;;;;;4973859;28;20181;-79
2022/06/18 08:13:00;;;;;;;9.45;3.47;;;;;;;;;;4973889;28;20463;-79
2022/06/18 08:15:26;;;;;;;10.88;4.05;;;;;;;;;;4974095;28;20034;-79
2022/06/18 08:17:51;;;;;;;9.45;3.42;;;;;;;;;;4973271;28;20023;-79
2022/06/18 08:20:17;;;;;;;8.63;3.92;;;;;;;;;;4973648;28;20544;-79
2022/06/18 08:22:45;;;;;;;8.63;3.95;;;;;;;;;;4972427;28;20065;-80
2022/06/18 08:25:11;;;;;;;14.80;4.60;;;;;;;;;;4972292;28;20039;-80
2022/06/18 08:27:38;;;;;;;15.82;5.13;;;;;;;;;;4972654;28;20121;-80
2022/06/18 08:30:04;;;;;;;8.25;3.60;;;;;;;;;;4972449;28;20046;-80
2022/06/18 08:32:30;;;;;;;9.93;3.83;;;;;;;;;;4973590;28;20062;-79
2022/06/18 08:34:55;;;;;;;8.93;3.75;;;;;;;;;;4972562;28;20121;-80
2022/06/18 08:37:20;;;;;;;8.77;3.90;;;;;;;;;;4973599;28;20117;-79
2022/06/18 08:39:46;;;;;;;12.05;3.50;;;;;;;;;;4977128;28;20361;-78
2022/06/18 08:42:32;;;;;;;10.18;3.50;;;;;;;;;;4973749;28;20146;-79
2022/06/18 08:45:00;;;;;;;8.55;3.20;;;;;;;;;;4973558;28;20055;-80
2022/06/18 08:47:45;;;;;;;7.05;2.95;;;;;;;;;;4973771;28;20027;-80
2022/06/18 08:50:13;;;;;;;9.13;3.42;;;;;;;;;;4973941;28;20073;-80
2022/06/18 08:53:16;;;;;;;6.53;2.83;;;;;;;;;;4973953;28;20027;-80
2022/06/18 08:56:00;;;;;;;7.32;3.03;;;;;;;;;;4973796;28;20105;-81
2022/06/18 08:58:43;;;;;;;8.60;3.35;;;;;;;;;;4978374;28;20030;-80
2022/06/18 09:01:28;;;;;;;;;;;;;;;;;;4978542;28;20038;-81
2022/06/18 09:04:09;;;;;;;6.80;3.05;;;;;;;;;;4977610;28;19910;-80
2022/06/18 09:06:46;;;;;;;6.95;3.42;;;;;;;;;;4978760;28;20037;-80
2022/06/18 09:09:31;;;;;;;26.27;4.53;;;;;;;;;;4977715;28;20030;-82
2022/06/18 09:12:08;;;;;;;15.05;5.43;;;;;;;;;;4976595;28;20098;-80
2022/06/18 09:14:39;;;;;;;19.48;5.72;;;;;;;;;;4960358;28;20133;-81
2022/06/18 09:17:12;;;;;;;14.65;5.18;;;;;;;;;;4978011;28;20026;-79
2022/06/18 09:19:39;;;;;;;9.68;4.07;;;;;;;;;;4959503;28;20023;-79
2022/06/18 09:22:10;;;;;;;11.75;3.53;;;;;;;;;;4975956;28;20430;-78
2022/06/18 09:24:43;;;;;;;11.55;3.83;;;;;;;;;;4977395;28;20023;-81
2022/06/18 09:27:24;;;;;;;9.25;3.30;;;;;;;;;;4976233;28;20027;-80
2022/06/18 09:29:52;;;;;;;45.97;11.10;;;;;;;;;;4975684;28;20030;-80
2022/06/18 09:32:26;;;;;;;29.25;8.02;;;;;;;;;;4976647;28;20055;-79
2022/06/18 09:35:02;;;;;;;18.15;6.45;;;;;;;;;;4976891;28;20230;-80
2022/06/18 09:37:33;;;;;;;19.38;5.85;;;;;;;;;;4958945;28;20023;-80
2022/06/18 09:40:00;;;;;;;28.63;4.70;;;;;;;;;;4958776;28;20041;-80
2022/06/18 09:42:32;;;;;;;11.00;3.50;;;;;;;;;;4959054;28;20400;-81
2022/06/18 09:45:22;;;;;;;12.45;2.97;;;;;;;;;;4975109;28;20030;-81
2022/06/18 09:47:49;;;;;;;6.70;3.33;;;;;;;;;;4959317;28;20053;-78
2022/06/18 09:50:25;;;;;;;8.32;3.10;;;;;;;;;;4958755;28;20027;-80
2022/06/18 09:52:58;;;;;;;8.50;3.42;;;;;;;;;;4977247;28;20027;-81
2022/06/18 09:55:34;;;;;;;8.68;2.75;;;;;;;;;;4975813;28;20403;-81
2022/06/18 09:58:02;;;;;;;6.68;3.13;;;;;;;;;;4959535;28;20030;-82
2022/06/18 10:00:30;;;;;;;9.05;3.00;;;;;;;;;;4975896;28;20044;-81
2022/06/18 10:03:01;;;;;;;9.27;3.00;;;;;;;;;;4975537;28;20062;-80
2022/06/18 10:08:29;;;;;;;8.70;2.83;;;;;;;;;;4974495;28;20034;-81
2022/06/18 10:11:07;;;;;;;12.95;3.60;;;;;;;;;;4959103;28;20085;-79
2022/06/18 10:13:34;;;;;;;9.55;3.55;;;;;;;;;;4975111;28;20159;-80
2022/06/18 10:16:03;;;;;;;8.52;2.92;;;;;;;;;;4974884;28;20061;-79
2022/06/18 10:18:40;;;;;;;11.90;3.30;;;;;;;;;;4978209;28;20117;-79
2022/06/18 10:21:12;;;;;;;6.00;2.80;;;;;;;;;;4976744;28;20019;-78
2022/06/18 10:23:54;;;;;;;6.95;2.80;;;;;;;;;;4976205;28;20050;-78
2022/06/18 10:26:41;;;;;;;6.25;2.60;;;;;;;;;;4974457;28;20042;-78
2022/06/18 10:29:17;;;;;;;6.45;2.95;;;;;;;;;;4974446;28;20026;-77
2022/06/18 10:32:08;;;;;;;5.43;3.00;;;;;;;;;;4958450;28;20114;-78
2022/06/18 10:34:43;;;;;;;10.50;3.70;;;;;;;;;;4974392;28;20491;-79
2022/06/18 10:37:23;;;;;;;7.30;2.65;;;;;;;;;;4975630;28;20031;-78
2022/06/18 10:40:09;;;;;;;6.68;2.50;;;;;;;;;;4958050;28;20066;-79
2022/06/18 10:42:47;;;;;;;6.78;3.20;;;;;;;;;;4973958;28;20395;-80
2022/06/18 10:45:31;;;;;;;9.18;2.58;;;;;;;;;;4975396;28;20543;-77
2022/06/18 10:47:56;;;;;;;8.15;2.90;;;;;;;;;;4975370;28;20035;-78
2022/06/18 10:50:24;;;;;;;6.40;2.47;;;;;;;;;;4973954;28;20030;-78
2022/06/18 10:53:32;;;;;;;6.72;2.78;;;;;;;;;;4974611;28;20049;-77
2022/06/18 10:56:06;;;;;;;10.07;2.60;;;;;;;;;;4959190;28;20046;-79
2022/06/18 10:58:32;;;;;;;7.63;2.72;;;;;;;;;;4957736;28;20030;-78
2022/06/18 11:00:59;;;;;;;12.32;3.08;;;;;;;;;;4974386;28;20058;-79
2022/06/18 11:03:27;;;;;;;5.82;2.47;;;;;;;;;;4974349;28;20019;-78
2022/06/18 11:05:52;;;;;;;6.00;2.80;;;;;;;;;;4974074;28;20126;-78
2022/06/18 11:08:29;;;;;;;10.05;2.67;;;;;;;;;;4973339;28;20129;-79
2022/06/18 11:10:59;;;;;;;13.40;2.63;;;;;;;;;;4973961;28;20514;-79
2022/06/18 11:13:32;;;;;;;7.53;2.72;;;;;;;;;;4973645;28;20027;-78
2022/06/18 11:16:06;;;;;;;6.78;2.55;;;;;;;;;;4973626;28;20027;-78
2022/06/18 11:18:31;;;;;;;6.00;3.00;;;;;;;;;;4957438;28;20113;-78
2022/06/18 11:21:00;;;;;;;5.03;2.50;;;;;;;;;;4973109;28;20531;-78
2022/06/18 11:23:27;;;;;;;3.03;2.20;;;;;;;;;;4973540;28;20058;-78
2022/06/18 11:25:55;;;;;;;7.00;2.70;;;;;;;;;;4973395;28;20106;-79
2022/06/18 11:28:30;;;;;;;5.03;2.67;;;;;;;;;;4973371;28;20050;-80
2022/06/18 11:30:56;;;;;;;6.75;2.60;;;;;;;;;;4973248;28;20018;-80
2022/06/18 11:33:25;;;;;;;9.05;2.42;;;;;;;;;;4973192;28;20558;-79
2022/06/18 11:35:50;;;;;;;6.00;2.50;;;;;;;;;;4974504;28;20034;-80
2022/06/18 11:38:37;;;;;;;5.97;2.47;;;;;;;;;;4974593;28;20424;-79
2022/06/18 11:41:50;;;;;;;5.50;2.63;;;;;;;;;;4974653;28;20031;-79
2022/06/18 11:44:23;;;;;;;3.25;2.20;;;;;;;;;;4962093;28;20488;-79
2022/06/18 11:46:54;;;;;;;;;;;;;;;;;;4957216;28;20023;-79
2022/06/18 11:49:30;;;;;;;5.93;2.42;;;;;;;;;;4973471;28;19933;-79
2022/06/18 11:52:20;;;;;;;3.60;2.20;;;;;;;;;;4972811;28;20110;-79
2022/06/18 11:55:24;;;;;;;3.63;2.22;;;;;;;;;;4974387;28;20118;-79
2022/06/18 11:57:58;;;;;;;5.32;2.20;;;;;;;;;;4942280;28;20039;-79
2022/06/18 12:01:02;;;;;;;4.03;2.10;;;;;;;;;;4974685;28;20089;-79
2022/06/18 12:03:39;;;;;;;5.18;2.40;;;;;;;;;;4973334;28;20058;-78
2022/06/18 12:06:13;;;;;;;6.82;2.20;;;;;;;;;;4973084;28;20043;-79
2022/06/18 12:08:40;;;;;;;5.93;2.05;;;;;;;;;;4956857;28;20045;-78
2022/06/18 12:11:31;;;;;;;13.27;2.90;;;;;;;;;;4974431;28;20054;-78
2022/06/18 12:14:11;;;;;;;3.85;2.20;;;;;;;;;;4965863;28;20042;-78
2022/06/18 12:16:55;;;;;;;5.22;2.80;;;;;;;;;;4974023;28;20026;-78
2022/06/18 12:19:26;;;;;;;3.33;2.20;;;;;;;;;;4972521;28;20023;-79
2022/06/18 12:21:57;;;;;;;4.53;2.25;;;;;;;;;;4973485;28;20522;-79
2022/06/18 12:24:43;;;;;;;4.50;1.90;;;;;;;;;;4956582;28;20073;-79
2022/06/18 12:27:14;;;;;;;3.92;2.20;;;;;;;;;;4973664;28;20049;-78
2022/06/18 12:29:57;;;;;;;3.45;1.70;;;;;;;;;;4972597;28;20046;-79
2022/06/18 12:32:47;;;;;;;6.25;2.42;;;;;;;;;;4976318;28;20101;-79
2022/06/18 12:35:41;;;;;;;6.07;1.88;;;;;;;;;;4976323;28;20027;-79
2022/06/18 12:38:42;;;;;;;4.40;2.10;;;;;;;;;;4976337;28;20093;-79
2022/06/18 12:41:39;;;;;;;2.75;1.70;;;;;;;;;;4974919;28;20364;-79
2022/06/18 12:44:20;;;;;;;5.50;1.85;;;;;;;;;;4976112;28;20027;-79
2022/06/18 12:46:51;;;;;;;3.17;1.77;;;;;;;;;;4977561;28;20042;-78
2022/06/18 12:49:37;;;;;;;4.07;2.25;;;;;;;;;;4975818;28;20117;-79
2022/06/18 12:52:20;;;;;;;2.50;1.80;;;;;;;;;;4977474;28;20025;-78
2022/06/18 12:55:14;;;;;;;3.03;1.95;;;;;;;;;;4959775;28;20031;-78
2022/06/18 12:57:42;;;;;;;2.13;1.50;;;;;;;;;;4977365;28;20041;-79
2022/06/18 13:00:14;;;;;;;1.75;1.50;;;;;;;;;;4977047;28;20035;-79
2022/06/18 13:02:51;;;;;;;3.50;1.48;;;;;;;;;;4976133;28;20022;-79
2022/06/18 13:05:20;;;;;;;2.97;1.92;;;;;;;;;;4976609;28;20057;-80
2022/06/18 13:08:11;;;;;;;3.67;1.63;;;;;;;;;;4976259;28;20049;-79
2022/06/18 13:10:42;;;;;;;3.45;1.65;;;;;;;;;;4976018;28;20396;-79
2022/06/18 13:13:10;;;;;;;1.48;1.35;;;;;;;;;;4959726;28;20093;-79
2022/06/18 13:15:47;;;;;;;3.95;1.63;;;;;;;;;;4977286;28;20031;-79
2022/06/18 13:18:26;;;;;;;2.20;1.40;;;;;;;;;;4959532;28;20068;-79
2022/06/18 13:20:54;;;;;;;2.33;1.48;;;;;;;;;;4975844;28;20027;-80
2022/06/18 13:29:11;;;;;;;3.45;1.52;;;;;;;;;;4976880;28;20121;-79
2022/06/18 13:31:58;;;;;;;2.25;1.48;;;;;;;;;;4976750;28;20491;-78
2022/06/18 13:34:35;;;;;;;2.05;1.55;;;;;;;;;;4975334;28;20494;-79
2022/06/18 13:37:21;;;;;;;2.40;1.35;;;;;;;;;;4976073;28;20109;-79
2022/06/18 13:39:46;;;;;;;2.55;1.50;;;;;;;;;;4975613;28;20039;-80
2022/06/18 13:42:27;;;;;;;1.65;1.30;;;;;;;;;;4975600;28;20023;-79
2022/06/18 13:45:04;;;;;;;2.50;1.38;;;;;;;;;;4975795;28;20511;-79
2022/06/18 13:47:48;;;;;;;3.50;1.70;;;;;;;;;;4975194;28;20026;-80
2022/06/18 13:50:24;;;;;;;4.53;1.60;;;;;;;;;;4975086;28;20027;-80
2022/06/18 13:52:50;;;;;;;1.83;1.30;;;;;;;;;;4975351;28;20086;-79
2022/06/18 13:55:38;;;;;;;2.72;1.30;;;;;;;;;;4975095;28;20035;-78
2022/06/18 13:58:06;;;;;;;1.42;1.33;;;;;;;;;;4975276;28;20042;-78
2022/06/18 14:00:34;;;;;;;3.42;1.30;;;;;;;;;;4959150;28;20041;-79
2022/06/18 14:03:01;;;;;;;3.80;1.60;;;;;;;;;;4975162;28;20023;-79
2022/06/18 14:05:46;;;;;;;2.22;1.42;;;;;;;;;;4976066;28;20019;-79
2022/06/18 14:08:47;;;;;;;4.28;1.33;;;;;;;;;;4974866;28;20408;-79
2022/06/18 14:11:13;;;;;;;3.30;1.30;;;;;;;;;;4974207;28;20502;-79
2022/06/18 14:13:50;;;;;;;6.28;2.10;;;;;;;;;;4974999;28;20031;-79
2022/06/18 14:16:37;;;;;;;3.25;1.35;;;;;;;;;;4974831;28;20067;-80
2022/06/18 14:19:05;;;;;;;1.48;1.17;;;;;;;;;;4958323;28;20094;-79
2022/06/18 14:21:31;;;;;;;3.42;1.83;;;;;;;;;;4974259;28;20087;-79
2022/06/18 14:23:57;;;;;;;2.67;1.30;;;;;;;;;;4976193;28;20050;-79
2022/06/18 14:26:22;;;;;;;2.30;1.40;;;;;;;;;;4974372;28;20058;-79
2022/06/18 14:28:50;;;;;;;1.83;1.20;;;;;;;;;;4974367;28;20077;-78
2022/06/18 14:31:35;;;;;;;2.90;1.40;;;;;;;;;;4975575;28;20034;-79
2022/06/18 14:34:25;;;;;;;4.63;1.40;;;;;;;;;;4974578;28;20043;-79
2022/06/18 14:36:51;;;;;;;7.45;1.45;;;;;;;;;;4974072;28;20019;-78
2022/06/18 14:39:32;;;;;;;1.27;1.15;;;;;;;;;;4974156;28;20031;-79
2022/06/18 14:42:11;;;;;;;4.25;1.70;;;;;;;;;;4958219;28;20067;-78
2022/06/18 14:44:49;;;;;;;1.63;1.20;;;;;;;;;;4974002;28;20052;-78
2022/06/18 14:47:17;;;;;;;2.50;1.75;;;;;;;;;;4974659;28;20452;-79
2022/06/18 14:49:58;;;;;;;1.00;0.98;;;;;;;;;;4975494;28;20046;-79
2022/06/18 14:53:01;;;;;;;2.40;1.30;;;;;;;;;;4974082;28;20174;-78
2022/06/18 14:55:52;;;;;;;3.40;1.23;;;;;;;;;;4974572;28;20015;-79
2022/06/18 14:58:38;;;;;;;3.60;1.45;;;;;;;;;;4974869;28;20027;-78
2022/06/18 15:01:10;;;;;;;1.20;1.10;;;;;;;;;;4974801;28;20050;-79
2022/06/18 15:03:43;;;;;;;4.35;1.35;;;;;;;;;;4974975;28;20066;-79
2022/06/18 15:06:10;;;;;;;;;;;;;;;;;;4957879;28;20041;-78
2022/06/18 15:08:43;;;;;;;2.92;1.40;;;;;;;;;;4974003;28;19933;-81
2022/06/18 15:11:09;;;;;;;4.07;1.50;;;;;;;;;;4957881;28;20498;-79
2022/06/18 15:13:39;;;;;;;4.22;1.70;;;;;;;;;;4973727;28;20031;-79
2022/06/18 15:16:27;;;;;;;2.33;1.38;;;;;;;;;;4973439;28;20027;-79
2022/06/18 15:22:13;;;;;;;4.18;1.30;;;;;;;;;;4974653;28;20059;-80
2022/06/18 15:24:18;;;;;;;1.10;1.00;;;;;;;;;;4965543;28;20106;-79
2022/06/18 15:26:45;;;;;;;1.45;1.15;;;;;;;;;;4957614;28;20058;-79